createdAt,value
2023-03-17T00:01:17.295Z,28.07
2023-03-17T00:05:17.325Z,26.52
2023-03-17T00:09:17.316Z,28.38
2023-03-17T00:13:17.366Z,28.33
2023-03-17T00:17:17.380Z,28.12
2023-03-17T00:21:17.391Z,25.80
2023-03-17T00:25:17.368Z,27.54
2023-03-17T00:29:17.356Z,28.52
2023-03-17T00:33:17.432Z,28.72
2023-03-17T00:37:17.465Z,26.43
2023-03-17T00:41:17.454Z,30.48
2023-03-17T00:45:17.485Z,27.69
2023-03-17T00:49:18.576Z,27.41
2023-03-17T00:53:17.552Z,26.79
2023-03-17T00:57:17.579Z,28.46
2023-03-17T01:01:17.579Z,25.92
2023-03-17T01:05:17.620Z,28.43
2023-03-17T01:09:17.670Z,27.95
2023-03-17T01:13:17.679Z,28.33
2023-03-17T01:17:17.719Z,30.50
2023-03-17T01:21:17.798Z,27.63
2023-03-17T01:25:17.881Z,29.43
2023-03-17T01:29:17.884Z,29.90
2023-03-17T01:33:18.001Z,28.55
2023-03-17T01:37:18.073Z,29.30
2023-03-17T01:41:18.172Z,29.17
2023-03-17T01:45:18.220Z,28.07
2023-03-17T01:49:18.276Z,29.60
2023-03-17T01:53:18.363Z,28.61
2023-03-17T01:57:18.425Z,28.86
2023-03-17T02:01:18.561Z,28.94
2023-03-17T02:05:18.644Z,30.21
2023-03-17T02:09:18.674Z,28.56
2023-03-17T02:13:18.786Z,31.77
2023-03-17T02:17:18.860Z,27.17
2023-03-17T02:21:18.957Z,27.23
2023-03-17T02:25:19.055Z,29.25
2023-03-17T02:29:19.158Z,27.07
2023-03-17T02:33:19.271Z,28.57
2023-03-17T02:37:19.384Z,29.42
2023-03-17T02:41:19.528Z,27.74
2023-03-17T02:45:19.544Z,29.40
2023-03-17T02:49:19.601Z,30.29
2023-03-17T02:53:19.727Z,30.03
2023-03-17T02:57:19.836Z,29.61
2023-03-17T03:01:19.954Z,28.65
2023-03-17T03:05:20.084Z,29.36
2023-03-17T03:09:20.109Z,29.28
2023-03-17T03:13:20.255Z,28.19
2023-03-17T03:17:20.373Z,32.06
2023-03-17T03:21:20.520Z,32.03
2023-03-17T03:25:20.565Z,32.34
2023-03-17T03:29:20.779Z,28.92
2023-03-17T03:33:20.862Z,33.91
2023-03-17T03:37:21.543Z,31.98
2023-03-17T03:41:21.078Z,31.03
2023-03-17T03:45:21.218Z,34.79
2023-03-17T03:49:21.320Z,34.87
2023-03-17T03:53:21.465Z,35.57
2023-03-17T03:57:21.633Z,33.10
2023-03-17T04:01:21.699Z,35.76
2023-03-17T04:05:21.886Z,34.90
2023-03-17T04:09:22.027Z,35.33
2023-03-17T04:13:22.078Z,34.08
2023-03-17T04:17:22.172Z,34.40
2023-03-17T04:21:22.284Z,35.51
2023-03-17T04:25:22.448Z,34.73
2023-03-17T04:29:22.561Z,37.41
2023-03-17T04:33:22.701Z,34.67
2023-03-17T04:37:22.799Z,33.77
2023-03-17T04:41:22.992Z,35.50
2023-03-17T04:45:23.189Z,34.63
2023-03-17T04:49:23.318Z,34.35
2023-03-17T04:53:23.458Z,36.19
2023-03-17T04:57:23.615Z,36.00
2023-03-17T05:01:23.827Z,34.47
2023-03-17T05:05:23.892Z,32.59
2023-03-17T05:09:24.106Z,34.59
2023-03-17T05:13:24.232Z,33.40
2023-03-17T05:17:24.437Z,37.01
2023-03-17T05:21:24.557Z,33.53
2023-03-17T05:25:24.820Z,32.64
2023-03-17T05:29:24.917Z,33.02
2023-03-17T05:33:25.099Z,31.58
2023-03-17T05:37:25.319Z,32.02
2023-03-17T05:41:25.400Z,31.45
2023-03-17T05:45:25.597Z,32.05
2023-03-17T05:49:25.770Z,30.24
2023-03-17T05:53:25.901Z,31.33
2023-03-17T05:57:26.142Z,30.44
2023-03-17T06:01:26.329Z,29.34
2023-03-17T06:05:26.448Z,27.82
2023-03-17T06:09:26.621Z,28.81
2023-03-17T06:13:26.802Z,30.23
2023-03-17T06:17:26.995Z,30.05
2023-03-17T06:21:27.126Z,28.32
2023-03-17T06:25:27.353Z,28.79
2023-03-17T06:29:27.437Z,27.80
2023-03-17T06:33:27.610Z,25.00
2023-03-17T06:37:27.751Z,25.00
2023-03-17T06:41:27.706Z,60.46
2023-03-17T06:45:27.857Z,69.95
2023-03-17T06:49:27.945Z,49.02
2023-03-17T06:53:28.060Z,115.79
2023-03-17T06:57:28.246Z,132.05
2023-03-17T07:01:28.322Z,139.58
2023-03-17T07:05:28.287Z,138.32
2023-03-17T07:09:28.375Z,139.98
2023-03-17T07:13:28.413Z,138.40
2023-03-17T07:17:28.533Z,137.24
2023-03-17T07:21:28.675Z,137.86
2023-03-17T07:25:29.642Z,132.34
2023-03-17T07:29:29.020Z,130.75
2023-03-17T07:33:29.251Z,128.44
2023-03-17T07:37:30.212Z,128.02
2023-03-17T07:41:29.602Z,127.17
2023-03-17T07:45:30.101Z,121.77
2023-03-17T07:49:40.688Z,121.47
2023-03-17T07:53:30.825Z,122.93
2023-03-17T07:57:29.958Z,123.17
2023-03-17T08:01:30.094Z,124.40
2023-03-17T08:05:30.688Z,120.90
2023-03-17T08:09:30.246Z,122.40
2023-03-17T08:13:30.374Z,121.58
2023-03-17T08:17:30.504Z,120.28
2023-03-17T08:21:30.499Z,117.87
2023-03-17T08:25:30.822Z,117.80
2023-03-17T08:29:30.678Z,117.11
2023-03-17T08:33:30.708Z,115.78
2023-03-17T08:37:37.718Z,117.63
2023-03-17T08:41:30.750Z,116.87
2023-03-17T08:45:32.228Z,116.05
2023-03-17T08:49:30.885Z,116.04
2023-03-17T08:53:30.618Z,114.51
2023-03-17T08:57:30.587Z,113.66
2023-03-17T09:01:30.545Z,113.93
2023-03-17T09:05:30.645Z,111.46
2023-03-17T09:09:31.845Z,113.44
2023-03-17T09:13:30.433Z,114.55
2023-03-17T09:17:30.312Z,110.32
2023-03-17T09:21:30.336Z,110.90
2023-03-17T09:25:30.269Z,112.63
2023-03-17T09:29:30.246Z,109.29
2023-03-17T09:33:30.206Z,112.36
2023-03-17T09:37:30.198Z,109.15
2023-03-17T09:41:30.119Z,107.39
2023-03-17T09:45:30.215Z,105.15
2023-03-17T09:49:29.987Z,104.40
2023-03-17T09:53:30.056Z,101.34
2023-03-17T09:57:30.177Z,100.44
2023-03-17T10:01:30.286Z,107.32
2023-03-17T10:05:30.711Z,107.99
2023-03-17T10:09:31.335Z,109.32
2023-03-17T10:13:31.252Z,110.24
2023-03-17T10:17:30.246Z,110.78
2023-03-17T10:21:30.246Z,109.92
2023-03-17T10:25:30.479Z,109.65
2023-03-17T10:29:30.125Z,104.16
2023-03-17T10:33:30.390Z,110.14
2023-03-17T10:37:30.230Z,111.07
2023-03-17T10:41:30.204Z,102.55
2023-03-17T10:45:30.200Z,110.97
2023-03-17T10:49:30.163Z,125.82
2023-03-17T10:53:30.129Z,135.88
2023-03-17T10:57:30.071Z,163.88
2023-03-17T11:01:30.041Z,136.16
2023-03-17T11:05:29.979Z,137.50
2023-03-17T11:09:30.687Z,144.46
2023-03-17T11:13:29.933Z,132.61
2023-03-17T11:17:29.867Z,138.17
2023-03-17T11:21:29.912Z,147.91
2023-03-17T11:25:29.776Z,87.76
2023-03-17T11:29:29.736Z,127.30
2023-03-17T11:33:29.743Z,127.38
2023-03-17T11:37:30.238Z,126.06
2023-03-17T11:41:29.902Z,145.98
2023-03-17T11:45:30.049Z,87.86
2023-03-17T11:49:30.114Z,100.42
2023-03-17T11:53:30.203Z,130.78
2023-03-17T11:57:30.345Z,135.69
2023-03-17T12:01:30.341Z,146.87
2023-03-17T12:05:30.592Z,152.27
2023-03-17T12:09:30.864Z,159.13
2023-03-17T12:13:30.733Z,170.97
2023-03-17T12:17:31.454Z,177.13
2023-03-17T12:21:30.661Z,178.95
2023-03-17T12:25:30.694Z,170.48
2023-03-17T12:29:30.576Z,169.49
2023-03-17T12:33:30.562Z,167.29
2023-03-17T12:37:30.500Z,167.71
2023-03-17T12:41:30.462Z,168.26
2023-03-17T12:45:30.719Z,165.00
2023-03-17T12:49:30.416Z,161.13
2023-03-17T12:53:30.446Z,159.51
2023-03-17T12:57:30.439Z,159.17
2023-03-17T13:01:30.585Z,155.78
2023-03-17T13:05:31.003Z,150.82
2023-03-17T13:09:31.698Z,151.43
2023-03-17T13:13:30.833Z,148.80
2023-03-17T13:17:31.316Z,147.74
2023-03-17T13:21:34.048Z,145.09
2023-03-17T13:25:31.126Z,145.11
2023-03-17T13:29:30.922Z,142.39
2023-03-17T13:33:30.921Z,139.75
2023-03-17T13:37:30.856Z,134.72
2023-03-17T13:41:30.765Z,133.95
2023-03-17T13:45:31.051Z,138.09
2023-03-17T13:49:30.806Z,129.65
2023-03-17T13:53:30.798Z,130.47
2023-03-17T13:57:30.748Z,126.94
2023-03-17T14:01:30.756Z,130.43
2023-03-17T14:05:31.000Z,127.36
2023-03-17T14:09:30.650Z,126.05
2023-03-17T14:13:30.609Z,121.43
2023-03-17T14:17:30.552Z,123.05
2023-03-17T14:21:30.531Z,114.87
2023-03-17T14:25:30.898Z,118.27
2023-03-17T14:29:30.425Z,116.76
2023-03-17T14:33:30.587Z,114.59
2023-03-17T14:37:30.729Z,116.12
2023-03-17T14:41:32.837Z,111.52
2023-03-17T14:45:31.324Z,113.35
2023-03-17T14:49:30.757Z,107.35
2023-03-17T14:53:30.720Z,106.33
2023-03-17T14:57:30.662Z,108.24
2023-03-17T15:01:30.744Z,112.57
2023-03-17T15:05:30.936Z,113.34
2023-03-17T15:09:30.543Z,108.83
2023-03-17T15:13:30.528Z,109.98
2023-03-17T15:17:30.463Z,107.31
2023-03-17T15:21:30.458Z,106.65
2023-03-17T15:25:30.417Z,99.08
2023-03-17T15:29:30.605Z,105.22
2023-03-17T15:33:30.767Z,97.33
2023-03-17T15:37:30.950Z,95.28
2023-03-17T15:41:31.188Z,100.55
2023-03-17T15:45:31.127Z,96.79
2023-03-17T15:49:31.063Z,100.06
2023-03-17T15:53:31.091Z,98.82
2023-03-17T15:57:31.011Z,98.21
2023-03-17T16:01:31.069Z,94.41
2023-03-17T16:05:30.959Z,96.21
2023-03-17T16:09:30.909Z,94.35
2023-03-17T16:13:30.838Z,96.03
2023-03-17T16:17:30.836Z,90.39
2023-03-17T16:21:30.763Z,86.20
2023-03-17T16:25:30.799Z,92.38
2023-03-17T16:29:30.685Z,83.83
2023-03-17T16:33:30.691Z,88.65
2023-03-17T16:37:30.637Z,82.30
2023-03-17T16:41:30.685Z,88.50
2023-03-17T16:45:30.688Z,83.32
2023-03-17T16:49:30.776Z,83.63
2023-03-17T16:53:30.925Z,88.37
2023-03-17T16:57:30.943Z,85.93
2023-03-17T17:01:31.084Z,85.46
2023-03-17T17:05:31.207Z,89.80
2023-03-17T17:09:31.430Z,84.51
2023-03-17T17:13:31.537Z,85.07
2023-03-17T17:17:31.731Z,84.75
2023-03-17T17:21:31.962Z,84.37
2023-03-17T17:25:32.382Z,84.05
2023-03-17T17:29:32.592Z,83.40
2023-03-17T17:33:32.285Z,86.53
2023-03-17T17:37:32.246Z,86.85
2023-03-17T17:41:32.683Z,84.50
2023-03-17T17:45:32.132Z,86.98
2023-03-17T17:49:32.120Z,85.60
2023-03-17T17:53:32.140Z,86.10
2023-03-17T17:57:32.064Z,87.17
2023-03-17T18:01:32.070Z,87.14
2023-03-17T18:05:32.012Z,81.15
2023-03-17T18:09:32.091Z,85.02
2023-03-17T18:13:31.947Z,81.42
2023-03-17T18:17:32.589Z,84.61
2023-03-17T18:21:31.810Z,84.79
2023-03-17T18:25:31.825Z,79.84
2023-03-17T18:29:31.891Z,84.88
2023-03-17T18:33:31.965Z,83.49
2023-03-17T18:37:32.045Z,82.64
2023-03-17T18:41:32.101Z,83.71
2023-03-17T18:45:32.190Z,77.76
2023-03-17T18:49:32.281Z,70.40
2023-03-17T18:53:32.343Z,76.63
2023-03-17T18:57:32.335Z,77.72
2023-03-17T19:01:32.387Z,73.97
2023-03-17T19:05:32.363Z,77.59
2023-03-17T19:09:32.359Z,78.03
2023-03-17T19:13:32.332Z,78.73
2023-03-17T19:17:32.293Z,78.79
2023-03-17T19:21:32.290Z,75.82
2023-03-17T19:25:32.243Z,73.32
2023-03-17T19:29:32.250Z,77.68
2023-03-17T19:33:32.242Z,76.24
2023-03-17T19:37:32.280Z,72.88
2023-03-17T19:41:32.366Z,73.07
2023-03-17T19:45:32.340Z,72.46
2023-03-17T19:49:32.383Z,72.71
2023-03-17T19:53:32.445Z,73.42
2023-03-17T19:57:32.462Z,75.79
2023-03-17T20:01:32.696Z,73.78
2023-03-17T20:05:32.531Z,68.64
2023-03-17T20:09:32.616Z,74.46
2023-03-17T20:13:32.702Z,67.19
2023-03-17T20:17:32.695Z,74.11
2023-03-17T20:21:32.722Z,74.06
2023-03-17T20:25:32.826Z,68.27
2023-03-17T20:29:32.898Z,75.42
2023-03-17T20:33:32.938Z,79.27
2023-03-17T20:37:33.124Z,80.55
2023-03-17T20:41:33.135Z,80.71
2023-03-17T20:45:33.276Z,82.34
2023-03-17T20:49:33.350Z,83.76
2023-03-17T20:53:33.433Z,82.01
2023-03-17T20:57:33.458Z,82.55
2023-03-17T21:01:33.720Z,81.12
2023-03-17T21:05:33.713Z,82.04
2023-03-17T21:09:33.808Z,80.82
2023-03-17T21:13:33.869Z,82.98
2023-03-17T21:17:33.950Z,81.74
2023-03-17T21:21:34.060Z,82.19
2023-03-17T21:25:34.152Z,81.56
2023-03-17T21:29:34.248Z,80.08
2023-03-17T21:33:34.346Z,80.60
2023-03-17T21:37:34.442Z,79.83
2023-03-17T21:41:34.573Z,77.52
2023-03-17T21:45:34.663Z,78.63
2023-03-17T21:49:34.770Z,78.51
2023-03-17T21:53:34.894Z,76.07
2023-03-17T21:57:35.013Z,77.87
2023-03-17T22:01:35.331Z,77.33
2023-03-17T22:05:35.373Z,74.56
2023-03-17T22:09:35.479Z,75.18
2023-03-17T22:13:35.602Z,75.34
2023-03-17T22:17:35.751Z,74.38
2023-03-17T22:21:35.864Z,74.42
2023-03-17T22:25:36.084Z,76.37
2023-03-17T22:29:36.180Z,74.31
2023-03-17T22:33:36.368Z,73.96
2023-03-17T22:37:36.495Z,73.34
2023-03-17T22:41:36.693Z,72.72
2023-03-17T22:45:36.889Z,70.32
2023-03-17T22:49:36.973Z,69.36
2023-03-17T22:53:37.123Z,69.75
2023-03-17T22:57:37.341Z,69.20
2023-03-17T23:01:37.534Z,69.41
2023-03-17T23:05:37.703Z,68.36
2023-03-17T23:09:37.889Z,66.93
2023-03-17T23:13:38.061Z,67.68
2023-03-17T23:17:38.298Z,65.96
2023-03-17T23:21:38.492Z,64.63
2023-03-17T23:25:38.658Z,65.87
2023-03-17T23:29:38.850Z,67.05
2023-03-17T23:33:39.032Z,65.72
2023-03-17T23:37:39.207Z,67.46
2023-03-17T23:41:39.380Z,66.49
2023-03-17T23:45:39.569Z,66.75
2023-03-17T23:49:39.744Z,66.67
2023-03-17T23:53:39.927Z,68.46
2023-03-17T23:57:40.126Z,70.09
